createdAt,value
2023-12-21T00:02:10.929Z,98804.13
2023-12-21T00:04:37.830Z,98794.69
2023-12-21T00:07:04.958Z,98793.44
2023-12-21T00:09:31.904Z,98792.34
2023-12-21T00:11:58.798Z,98793.69
2023-12-21T00:14:28.180Z,98787.88
2023-12-21T00:16:55.051Z,98796.09
2023-12-21T00:19:22.075Z,98773.78
2023-12-21T00:21:49.711Z,98780.44
2023-12-21T00:24:16.641Z,98776.91
2023-12-21T00:26:43.482Z,98774.63
2023-12-21T00:29:10.615Z,98770.28
2023-12-21T00:31:37.521Z,98765.16
2023-12-21T00:34:04.493Z,98764.53
2023-12-21T00:36:32.271Z,98763.47
2023-12-21T00:38:59.193Z,98759.50
2023-12-21T00:41:26.344Z,98762.91
2023-12-21T00:43:53.171Z,98745.13
2023-12-21T00:46:20.729Z,98751.03
2023-12-21T00:48:47.831Z,98749.44
2023-12-21T00:51:14.663Z,98756.84
2023-12-21T00:53:41.487Z,98757.88
2023-12-21T00:56:10.003Z,98751.03
2023-12-21T00:58:36.863Z,98733.94
2023-12-21T01:01:04.022Z,98743.22
2023-12-21T01:03:31.247Z,98732.59
2023-12-21T01:05:58.292Z,98746.91
2023-12-21T01:08:25.268Z,98745.56
2023-12-21T01:10:52.123Z,98711.66
2023-12-21T01:13:19.276Z,98731.00
2023-12-21T01:15:46.116Z,98718.09
2023-12-21T01:18:13.174Z,98708.53
2023-12-21T01:20:40.001Z,98716.13
2023-12-21T01:23:07.274Z,98704.81
2023-12-21T01:25:34.199Z,98699.69
2023-12-21T01:28:01.163Z,98695.38
2023-12-21T01:30:28.705Z,98678.22
2023-12-21T01:32:55.673Z,98691.63
2023-12-21T01:35:22.681Z,98695.59
2023-12-21T01:37:50.503Z,98683.63
2023-12-21T01:40:17.765Z,98693.81
2023-12-21T01:42:44.963Z,98693.00
2023-12-21T01:45:12.871Z,98688.53
2023-12-21T01:47:40.118Z,98638.00
2023-12-21T01:50:07.879Z,98697.88
2023-12-21T01:52:35.948Z,98677.75
2023-12-21T01:55:04.748Z,98675.78
2023-12-21T01:57:31.660Z,98673.00
2023-12-21T01:59:59.143Z,98668.66
2023-12-21T02:02:26.021Z,98668.56
2023-12-21T02:04:53.856Z,98662.44
2023-12-21T02:07:20.722Z,98636.94
2023-12-21T02:09:47.630Z,98637.75
2023-12-21T02:12:14.496Z,98629.38
2023-12-21T02:14:41.698Z,98638.03
2023-12-21T02:17:13.955Z,98621.66
2023-12-21T02:19:41.992Z,98617.91
2023-12-21T02:22:10.853Z,98612.75
2023-12-21T02:24:39.036Z,98611.16
2023-12-21T02:27:06.007Z,98615.03
2023-12-21T02:29:32.853Z,98618.63
2023-12-21T02:31:59.792Z,98610.22
2023-12-21T02:34:26.847Z,98580.47
2023-12-21T02:36:54.327Z,98599.81
2023-12-21T02:39:21.170Z,98588.78
2023-12-21T02:41:50.903Z,98585.06
2023-12-21T02:44:17.812Z,98564.53
2023-12-21T02:46:44.828Z,98568.41
2023-12-21T02:49:11.769Z,98574.50
2023-12-21T02:51:38.806Z,98571.84
2023-12-21T02:54:05.610Z,98564.13
2023-12-21T02:56:32.441Z,98553.47
2023-12-21T02:58:59.337Z,98557.25
2023-12-21T03:01:26.845Z,98526.06
2023-12-21T03:03:53.937Z,98536.34
2023-12-21T03:06:20.845Z,98535.16
2023-12-21T03:08:47.687Z,98520.53
2023-12-21T03:11:14.523Z,98514.63
2023-12-21T03:13:41.481Z,98513.84
2023-12-21T03:16:08.974Z,98513.84
2023-12-21T03:18:35.870Z,98516.53
2023-12-21T03:21:03.711Z,98510.34
2023-12-21T03:23:31.792Z,98514.34
2023-12-21T03:25:58.703Z,98509.84
2023-12-21T03:28:25.569Z,98500.59
2023-12-21T03:30:52.520Z,98492.22
2023-12-21T03:33:19.516Z,98509.75
2023-12-21T03:35:46.345Z,98507.41
2023-12-21T03:38:13.185Z,98505.16
2023-12-21T03:40:40.131Z,98507.41
2023-12-21T03:43:07.062Z,98493.88
2023-12-21T03:45:36.457Z,98491.88
2023-12-21T03:48:04.520Z,98476.50
2023-12-21T03:50:31.342Z,98481.78
2023-12-21T03:52:58.177Z,98490.03
2023-12-21T03:55:25.147Z,98488.50
2023-12-21T03:57:52.812Z,98475.47
2023-12-21T04:00:20.126Z,98478.69
2023-12-21T04:02:47.923Z,98475.34
2023-12-21T04:05:16.515Z,98471.34
2023-12-21T04:07:43.434Z,98468.75
2023-12-21T04:10:11.430Z,98465.69
2023-12-21T04:12:38.375Z,98456.94
2023-12-21T04:15:05.864Z,98472.31
2023-12-21T04:17:32.813Z,98474.97
2023-12-21T04:19:59.811Z,98465.38
2023-12-21T04:22:26.748Z,98446.97
2023-12-21T04:24:53.582Z,98446.50
2023-12-21T04:27:20.400Z,98452.41
2023-12-21T04:29:47.520Z,98446.28
2023-12-21T04:32:14.337Z,98442.19
2023-12-21T04:34:41.212Z,98432.50
2023-12-21T04:37:08.035Z,98435.16
2023-12-21T04:39:36.017Z,98423.81
2023-12-21T04:42:03.991Z,98421.28
2023-12-21T04:44:30.903Z,98419.56
2023-12-21T04:46:57.961Z,98416.06
2023-12-21T04:49:25.653Z,98415.88
2023-12-21T04:51:52.720Z,98405.91
2023-12-21T04:54:19.678Z,98413.16
2023-12-21T04:56:47.504Z,98427.06
2023-12-21T04:59:14.360Z,98421.75
2023-12-21T05:01:42.344Z,98418.53
2023-12-21T05:04:10.900Z,98380.44
2023-12-21T05:06:37.796Z,98391.56
2023-12-21T05:09:04.758Z,98380.16
2023-12-21T05:11:31.662Z,98376.53
2023-12-21T05:13:58.540Z,98388.38
2023-12-21T05:16:25.440Z,98385.16
2023-12-21T05:18:52.341Z,98389.44
2023-12-21T05:21:19.197Z,98383.50
2023-12-21T05:23:46.037Z,98388.59
2023-12-21T05:26:16.078Z,98388.94
2023-12-21T05:28:44.110Z,98388.28
2023-12-21T05:31:12.429Z,98383.28
2023-12-21T05:33:40.834Z,98376.41
2023-12-21T05:36:08.433Z,98367.13
2023-12-21T05:38:35.429Z,98374.22
2023-12-21T05:41:03.239Z,98375.63
2023-12-21T05:43:30.110Z,98356.72
2023-12-21T05:45:57.222Z,98347.38
2023-12-21T05:48:24.377Z,98342.13
2023-12-21T05:50:51.462Z,98341.72
2023-12-21T05:53:18.271Z,98343.16
2023-12-21T05:55:45.267Z,98364.75
2023-12-21T05:58:12.602Z,98360.31
2023-12-21T06:00:39.515Z,98351.56
2023-12-21T06:03:06.384Z,98333.44
2023-12-21T06:05:33.446Z,98327.66
2023-12-21T06:08:00.288Z,98334.47
2023-12-21T06:10:27.112Z,98334.16
2023-12-21T06:12:54.487Z,98333.63
2023-12-21T06:15:21.291Z,98340.47
2023-12-21T06:17:48.222Z,98328.91
2023-12-21T06:20:15.222Z,98317.16
2023-12-21T06:22:42.224Z,98315.34
2023-12-21T06:25:09.555Z,98317.84
2023-12-21T06:27:36.510Z,98304.25
2023-12-21T06:30:03.438Z,98303.06
2023-12-21T06:32:30.444Z,98290.97
2023-12-21T06:34:57.463Z,98287.53
2023-12-21T06:37:24.485Z,98272.78
2023-12-21T06:39:51.547Z,98268.81
2023-12-21T06:42:18.353Z,98271.63
2023-12-21T06:44:45.159Z,98258.03
2023-12-21T06:47:13.345Z,98261.84
2023-12-21T06:49:40.216Z,98263.97
2023-12-21T06:52:07.087Z,98257.34
2023-12-21T06:54:35.268Z,98266.72
2023-12-21T06:57:04.344Z,98254.84
2023-12-21T06:59:31.525Z,98258.94
2023-12-21T07:01:58.420Z,98257.44
2023-12-21T07:04:25.433Z,98244.97
2023-12-21T07:06:52.360Z,98264.00
2023-12-21T07:09:20.702Z,98253.50
2023-12-21T07:11:49.185Z,98247.44
2023-12-21T07:14:16.659Z,98247.50
2023-12-21T07:16:43.488Z,98241.41
2023-12-21T07:19:11.236Z,98233.59
2023-12-21T07:21:38.193Z,98235.94
2023-12-21T07:24:05.785Z,98236.72
2023-12-21T07:26:32.625Z,98232.59
2023-12-21T07:28:59.832Z,98230.16
2023-12-21T07:31:26.769Z,98197.88
2023-12-21T07:33:53.713Z,98212.75
2023-12-21T07:36:21.799Z,98197.53
2023-12-21T07:38:48.685Z,98172.19
2023-12-21T07:41:15.531Z,98203.81
2023-12-21T07:43:42.799Z,98196.78
2023-12-21T07:46:10.807Z,98193.06
2023-12-21T07:48:38.013Z,98182.06
2023-12-21T07:51:06.028Z,98186.22
2023-12-21T07:53:32.913Z,98187.06
2023-12-21T07:56:00.777Z,98189.72
2023-12-21T07:58:27.747Z,98204.06
2023-12-21T08:00:54.788Z,98186.75
2023-12-21T08:03:21.707Z,98178.28
2023-12-21T08:05:49.191Z,98173.88
2023-12-21T08:08:16.099Z,98175.56
2023-12-21T08:10:43.393Z,98173.47
2023-12-21T08:13:10.766Z,98182.16
2023-12-21T08:15:38.595Z,98174.31
2023-12-21T08:18:06.075Z,98167.25
2023-12-21T08:20:34.458Z,98184.97
2023-12-21T08:23:04.262Z,98150.75
2023-12-21T08:25:32.797Z,98173.09
2023-12-21T08:28:00.381Z,98134.31
2023-12-21T08:30:27.423Z,98161.84
2023-12-21T08:32:54.475Z,98154.88
2023-12-21T08:35:21.427Z,98148.72
2023-12-21T08:37:48.229Z,98158.97
2023-12-21T08:40:16.499Z,98120.00
2023-12-21T08:42:43.430Z,98147.59
2023-12-21T08:45:10.902Z,98146.69
2023-12-21T08:47:42.411Z,98136.97
2023-12-21T08:50:13.189Z,98140.31
2023-12-21T08:52:41.173Z,98126.19
2023-12-21T08:55:09.722Z,98138.19
2023-12-21T08:57:38.000Z,98147.56
2023-12-21T09:00:13.973Z,98133.91
2023-12-21T09:02:41.695Z,98143.00
2023-12-21T09:05:08.967Z,98133.59
2023-12-21T09:07:36.013Z,98135.13
2023-12-21T09:10:04.366Z,98133.94
2023-12-21T09:12:32.644Z,98122.31
2023-12-21T09:14:59.939Z,98104.00
2023-12-21T09:17:26.942Z,98104.25
2023-12-21T09:19:53.943Z,98102.50
2023-12-21T09:22:22.592Z,98106.16
2023-12-21T09:24:50.388Z,98095.03
2023-12-21T09:27:17.252Z,98072.13
2023-12-21T09:29:44.230Z,98070.22
2023-12-21T09:32:11.840Z,98080.84
2023-12-21T09:34:39.624Z,98039.25
2023-12-21T09:37:08.098Z,98039.81
2023-12-21T09:39:35.721Z,98035.34
2023-12-21T09:42:04.328Z,98046.06
2023-12-21T09:44:32.430Z,98062.88
2023-12-21T09:47:02.557Z,98078.94
2023-12-21T09:49:31.926Z,98057.72
2023-12-21T09:52:00.071Z,98026.03
2023-12-21T09:54:27.665Z,98010.28
2023-12-21T09:56:55.469Z,98009.94
2023-12-21T09:59:22.845Z,98014.94
2023-12-21T10:01:52.442Z,97994.44
2023-12-21T10:04:20.475Z,98005.28
2023-12-21T10:06:48.698Z,97985.22
2023-12-21T10:09:17.116Z,98009.03
2023-12-21T10:11:44.877Z,98019.84
2023-12-21T10:14:20.674Z,98012.84
2023-12-21T10:16:48.674Z,98006.09
2023-12-21T10:19:17.887Z,97990.03
2023-12-21T10:21:44.866Z,97987.78
2023-12-21T10:24:13.138Z,97982.28
2023-12-21T10:26:51.292Z,97971.94
2023-12-21T10:29:20.192Z,97963.78
2023-12-21T10:31:48.899Z,97933.00
2023-12-21T10:34:16.628Z,97901.41
2023-12-21T10:36:44.780Z,97932.06
2023-12-21T10:39:14.686Z,97928.53
2023-12-21T10:41:44.314Z,97911.97
2023-12-21T10:44:16.524Z,97908.47
2023-12-21T10:46:43.979Z,97889.81
2023-12-21T10:49:13.319Z,97890.47
2023-12-21T10:51:44.218Z,97888.00
2023-12-21T10:54:15.803Z,97860.53
2023-12-21T10:56:43.620Z,97849.16
2023-12-21T10:59:14.079Z,97838.97
2023-12-21T11:01:41.898Z,97825.47
2023-12-21T11:04:12.323Z,97837.47
2023-12-21T11:06:40.873Z,97839.31
2023-12-21T11:09:10.701Z,97797.91
2023-12-21T11:11:38.071Z,97800.03
2023-12-21T11:14:05.197Z,97797.19
2023-12-21T11:16:37.898Z,97793.22
2023-12-21T11:19:10.216Z,97793.97
2023-12-21T11:21:37.826Z,97777.63
2023-12-21T11:24:05.896Z,97766.00
2023-12-21T11:26:33.045Z,97765.56
2023-12-21T11:29:11.708Z,97767.00
2023-12-21T11:31:42.143Z,97760.22
2023-12-21T11:34:23.968Z,97744.72
2023-12-21T11:37:02.147Z,97729.22
2023-12-21T11:39:31.602Z,97736.69
2023-12-21T11:42:01.677Z,97729.78
2023-12-21T11:44:40.411Z,97723.91
2023-12-21T11:47:09.301Z,97724.91
2023-12-21T11:49:40.645Z,97720.81
2023-12-21T11:52:07.923Z,97705.63
2023-12-21T11:54:37.256Z,97700.28
2023-12-21T11:57:14.090Z,97676.94
2023-12-21T11:59:41.371Z,97696.09
2023-12-21T12:02:14.927Z,97657.25
2023-12-21T12:04:52.488Z,97678.31
2023-12-21T12:07:22.480Z,97663.81
2023-12-21T12:09:49.436Z,97675.91
2023-12-21T12:12:17.626Z,97674.25
2023-12-21T12:14:45.176Z,97653.06
2023-12-21T12:17:12.222Z,97646.84
2023-12-21T12:19:40.370Z,97621.22
2023-12-21T12:22:11.043Z,97604.72
2023-12-21T12:24:38.673Z,97594.31
2023-12-21T12:27:11.311Z,97585.81
2023-12-21T12:29:39.526Z,97586.66
2023-12-21T12:32:06.995Z,97572.81
2023-12-21T12:34:35.867Z,97566.91
2023-12-21T12:37:04.976Z,97555.47
2023-12-21T12:39:32.743Z,97550.63
2023-12-21T12:42:01.106Z,97549.19
2023-12-21T12:44:28.621Z,97551.00
2023-12-21T12:46:56.246Z,97544.56
2023-12-21T12:49:23.745Z,97537.97
2023-12-21T12:51:53.380Z,97544.56
2023-12-21T12:54:20.300Z,97499.59
2023-12-21T12:56:52.391Z,97548.63
2023-12-21T12:59:20.671Z,97552.16
2023-12-21T13:01:47.906Z,97534.56
2023-12-21T13:04:15.354Z,97540.78
2023-12-21T13:06:42.552Z,97549.34
2023-12-21T13:09:09.751Z,97530.44
2023-12-21T13:11:36.799Z,97530.13
2023-12-21T13:14:05.571Z,97530.06
2023-12-21T13:16:32.474Z,97520.53
2023-12-21T13:18:59.359Z,97519.50
2023-12-21T13:21:26.331Z,97533.16
2023-12-21T13:23:53.267Z,97524.53
2023-12-21T13:26:21.478Z,97580.91
2023-12-21T13:28:48.523Z,97558.88
2023-12-21T13:31:15.854Z,97551.75
2023-12-21T13:33:42.979Z,97553.09
2023-12-21T13:36:09.991Z,97550.72
2023-12-21T13:38:38.761Z,97544.75
2023-12-21T13:41:05.848Z,97529.31
2023-12-21T13:43:32.724Z,97521.03
2023-12-21T13:45:59.689Z,97523.63
2023-12-21T13:48:27.038Z,97499.97
2023-12-21T13:50:54.113Z,97522.72
2023-12-21T13:53:20.973Z,97513.09
2023-12-21T13:55:48.528Z,97512.88
2023-12-21T13:58:15.645Z,97505.44
2023-12-21T14:00:42.561Z,97497.06
2023-12-21T14:03:10.023Z,97503.13
2023-12-21T14:05:36.964Z,97508.03
2023-12-21T14:08:04.514Z,97498.41
2023-12-21T14:10:31.604Z,97480.09
2023-12-21T14:13:01.551Z,97505.34
2023-12-21T14:15:29.032Z,97502.84
2023-12-21T14:17:56.583Z,97501.28
2023-12-21T14:20:24.799Z,97502.22
2023-12-21T14:22:52.166Z,97509.25
2023-12-21T14:25:19.169Z,97494.47
2023-12-21T14:27:47.169Z,97512.25
2023-12-21T14:30:14.916Z,97480.00
2023-12-21T14:32:42.157Z,97499.22
2023-12-21T14:35:09.202Z,97493.75
2023-12-21T14:37:36.829Z,97489.94
2023-12-21T14:40:05.175Z,97487.84
2023-12-21T14:42:33.820Z,97502.13
2023-12-21T14:45:00.654Z,97485.25
2023-12-21T14:47:30.932Z,97491.16
2023-12-21T14:49:58.355Z,97498.53
2023-12-21T14:52:25.404Z,97461.13
2023-12-21T14:54:52.788Z,97481.47
2023-12-21T14:57:20.216Z,97459.34
2023-12-21T14:59:47.154Z,97475.97
2023-12-21T15:02:14.238Z,97475.06
2023-12-21T15:04:41.220Z,97485.91
2023-12-21T15:07:08.740Z,97468.03
2023-12-21T15:09:37.500Z,97472.59
2023-12-21T15:12:05.136Z,97488.50
2023-12-21T15:14:32.420Z,97474.44
2023-12-21T15:17:00.377Z,97495.72
2023-12-21T15:19:32.241Z,97482.28
2023-12-21T15:22:01.393Z,97478.78
2023-12-21T15:24:28.292Z,97487.16
2023-12-21T15:26:55.233Z,97482.81
2023-12-21T15:29:22.055Z,97466.59
2023-12-21T15:31:49.074Z,97463.06
2023-12-21T15:34:16.135Z,97463.28
2023-12-21T15:36:43.455Z,97460.59
2023-12-21T15:39:10.405Z,97467.72
2023-12-21T15:41:37.331Z,97450.88
2023-12-21T15:44:04.339Z,97445.59
2023-12-21T15:46:33.029Z,97454.19
2023-12-21T15:49:01.277Z,97459.34
2023-12-21T15:51:28.133Z,97462.66
2023-12-21T15:53:55.342Z,97466.88
2023-12-21T15:56:22.197Z,97467.50
2023-12-21T15:58:49.270Z,97458.22
2023-12-21T16:01:17.920Z,97460.81
2023-12-21T16:03:44.874Z,97446.84
2023-12-21T16:06:11.859Z,97461.94
2023-12-21T16:08:38.886Z,97440.66
2023-12-21T16:11:07.846Z,97432.50
2023-12-21T16:13:34.821Z,97426.06
2023-12-21T16:16:03.297Z,97426.50
2023-12-21T16:18:30.165Z,97414.91
2023-12-21T16:20:57.756Z,97414.19
2023-12-21T16:23:24.592Z,97428.75
2023-12-21T16:25:51.471Z,97427.34
2023-12-21T16:28:18.338Z,97417.50
2023-12-21T16:30:45.178Z,97415.44
2023-12-21T16:33:12.177Z,97407.56
2023-12-21T16:35:39.028Z,97413.38
2023-12-21T16:38:06.522Z,97424.81
2023-12-21T16:40:33.464Z,97423.91
2023-12-21T16:43:00.339Z,97406.94
2023-12-21T16:45:30.584Z,97417.59
2023-12-21T16:47:58.356Z,97418.75
2023-12-21T16:50:27.706Z,97421.72
2023-12-21T16:52:54.604Z,97435.25
2023-12-21T16:55:21.526Z,97414.72
2023-12-21T16:57:49.946Z,97435.38
2023-12-21T17:00:18.541Z,97435.59
2023-12-21T17:02:46.036Z,97442.22
2023-12-21T17:05:14.157Z,97425.03
2023-12-21T17:07:41.044Z,97426.72
2023-12-21T17:10:08.277Z,97435.78
2023-12-21T17:12:36.458Z,97441.56
2023-12-21T17:15:04.105Z,97431.44
2023-12-21T17:17:31.026Z,97429.59
2023-12-21T17:19:57.927Z,97428.66
2023-12-21T17:22:24.785Z,97435.69
2023-12-21T17:24:51.615Z,97431.75
2023-12-21T17:27:18.483Z,97421.72
2023-12-21T17:29:45.313Z,97425.25
2023-12-21T17:32:12.267Z,97454.59
2023-12-21T17:34:39.191Z,97451.28
2023-12-21T17:37:06.044Z,97437.84
2023-12-21T17:39:32.907Z,97414.31
2023-12-21T17:41:59.791Z,97437.44
2023-12-21T17:44:27.922Z,97437.25
2023-12-21T17:46:54.791Z,97437.03
2023-12-21T17:49:21.891Z,97432.88
2023-12-21T17:51:49.057Z,97440.44
2023-12-21T17:54:16.677Z,97426.41
2023-12-21T17:56:43.541Z,97430.13
2023-12-21T17:59:11.502Z,97429.38
2023-12-21T18:01:38.442Z,97408.94
2023-12-21T18:04:05.566Z,97415.41
2023-12-21T18:06:34.621Z,97430.81
2023-12-21T18:09:01.576Z,97421.53
2023-12-21T18:11:30.015Z,97440.84
2023-12-21T18:13:57.124Z,97420.38
2023-12-21T18:16:25.727Z,97415.50
2023-12-21T18:18:52.826Z,97414.38
2023-12-21T18:21:19.760Z,97400.66
2023-12-21T18:23:46.579Z,97397.72
2023-12-21T18:26:13.851Z,97393.41
2023-12-21T18:28:40.755Z,97393.63
2023-12-21T18:31:07.642Z,97405.50
2023-12-21T18:33:34.776Z,97397.50
2023-12-21T18:36:01.577Z,97395.03
2023-12-21T18:38:28.367Z,97386.75
2023-12-21T18:40:55.797Z,97349.75
2023-12-21T18:43:22.722Z,97371.84
2023-12-21T18:45:52.140Z,97352.59
2023-12-21T18:48:19.110Z,97346.38
2023-12-21T18:50:47.357Z,97345.44
2023-12-21T18:53:14.401Z,97358.59
2023-12-21T18:55:41.417Z,97364.38
2023-12-21T18:58:08.898Z,97374.81
2023-12-21T19:00:35.791Z,97358.97
2023-12-21T19:03:02.724Z,97370.75
2023-12-21T19:05:30.512Z,97378.78
2023-12-21T19:07:59.123Z,97348.59
2023-12-21T19:10:26.224Z,97347.75
2023-12-21T19:12:53.086Z,97341.31
2023-12-21T19:15:19.898Z,97356.63
2023-12-21T19:17:47.114Z,97342.53
2023-12-21T19:20:14.197Z,97339.22
2023-12-21T19:22:41.471Z,97363.66
2023-12-21T19:25:12.698Z,97369.06
2023-12-21T19:27:40.591Z,97376.69
2023-12-21T19:30:11.059Z,97379.41
2023-12-21T19:32:38.038Z,97382.44
2023-12-21T19:35:05.608Z,97393.09
2023-12-21T19:37:32.584Z,97385.19
2023-12-21T19:39:59.453Z,97391.19
2023-12-21T19:42:26.286Z,97396.91
2023-12-21T19:44:53.129Z,97396.75
2023-12-21T19:47:20.050Z,97418.25
2023-12-21T19:49:47.010Z,97419.06
2023-12-21T19:52:14.003Z,97420.75
2023-12-21T19:54:40.934Z,97431.09
2023-12-21T19:57:09.659Z,97428.00
2023-12-21T19:59:36.523Z,97415.69
2023-12-21T20:02:04.646Z,97445.88
2023-12-21T20:04:31.824Z,97441.31
2023-12-21T20:06:58.846Z,97431.38
2023-12-21T20:09:26.353Z,97425.25
2023-12-21T20:11:53.236Z,97439.00
2023-12-21T20:14:21.671Z,97443.16
2023-12-21T20:16:54.982Z,97438.63
2023-12-21T20:19:25.556Z,97437.78
2023-12-21T20:21:54.593Z,97455.16
2023-12-21T20:24:22.867Z,97441.31
2023-12-21T20:26:49.756Z,97447.09
2023-12-21T20:29:16.577Z,97454.16
2023-12-21T20:31:43.451Z,97444.53
2023-12-21T20:34:13.158Z,97450.00
2023-12-21T20:36:40.241Z,97485.69
2023-12-21T20:39:07.675Z,97458.81
2023-12-21T20:41:35.125Z,97470.28
2023-12-21T20:44:02.135Z,97471.53
2023-12-21T20:46:30.735Z,97471.13
2023-12-21T20:48:57.981Z,97453.13
2023-12-21T20:51:24.808Z,97458.31
2023-12-21T20:53:51.708Z,97453.69
2023-12-21T20:56:18.661Z,97460.44
2023-12-21T20:58:45.549Z,97461.28
2023-12-21T21:01:12.640Z,97459.59
2023-12-21T21:03:39.608Z,97447.84
2023-12-21T21:06:07.122Z,97436.81
2023-12-21T21:08:34.136Z,97449.00
2023-12-21T21:11:01.004Z,97438.38
2023-12-21T21:13:27.885Z,97461.78
2023-12-21T21:15:54.921Z,97461.78
2023-12-21T21:18:22.584Z,97472.28
2023-12-21T21:20:49.544Z,97460.91
2023-12-21T21:23:16.447Z,97481.31
2023-12-21T21:25:43.716Z,97468.66
2023-12-21T21:28:10.587Z,97487.69
2023-12-21T21:30:56.203Z,97501.25
2023-12-21T21:33:24.378Z,97509.56
2023-12-21T21:35:52.794Z,97503.66
2023-12-21T21:38:19.742Z,97499.50
2023-12-21T21:40:46.672Z,97523.66
2023-12-21T21:43:14.453Z,97523.88
2023-12-21T21:45:41.375Z,97538.66
2023-12-21T21:48:08.415Z,97533.78
2023-12-21T21:50:35.955Z,97538.34
2023-12-21T21:53:02.786Z,97535.03
2023-12-21T21:55:29.697Z,97539.69
2023-12-21T21:57:57.172Z,97553.56
2023-12-21T22:00:24.286Z,97527.19
2023-12-21T22:02:51.177Z,97547.78
2023-12-21T22:05:18.128Z,97554.81
2023-12-21T22:07:45.177Z,97527.59
2023-12-21T22:10:12.172Z,97555.97
2023-12-21T22:12:39.068Z,97563.13
2023-12-21T22:15:06.698Z,97573.53
2023-12-21T22:17:33.581Z,97556.56
2023-12-21T22:20:00.567Z,97584.22
2023-12-21T22:22:27.455Z,97576.03
2023-12-21T22:24:54.292Z,97578.31
2023-12-21T22:27:21.621Z,97579.75
2023-12-21T22:29:51.050Z,97593.00
2023-12-21T22:32:19.586Z,97588.44
2023-12-21T22:34:47.568Z,97567.75
2023-12-21T22:37:17.691Z,97585.88
2023-12-21T22:39:45.312Z,97622.97
2023-12-21T22:42:12.144Z,97602.00
2023-12-21T22:44:39.002Z,97615.56
2023-12-21T22:47:05.876Z,97642.22
2023-12-21T22:49:32.788Z,97598.88
2023-12-21T22:51:59.766Z,97601.47
2023-12-21T22:54:26.635Z,97621.06
2023-12-21T22:56:53.617Z,97608.19
2023-12-21T22:59:20.484Z,97640.56
2023-12-21T23:01:47.339Z,97647.06
2023-12-21T23:04:14.200Z,97637.44
2023-12-21T23:06:41.459Z,97665.59
2023-12-21T23:09:08.659Z,97664.28
2023-12-21T23:11:35.892Z,97642.28
2023-12-21T23:14:02.805Z,97632.63
2023-12-21T23:16:29.837Z,97644.38
2023-12-21T23:18:56.867Z,97631.63
2023-12-21T23:21:24.391Z,97639.72
2023-12-21T23:23:51.208Z,97613.22
2023-12-21T23:26:20.599Z,97630.75
2023-12-21T23:28:47.610Z,97632.94
2023-12-21T23:31:14.728Z,97645.84
2023-12-21T23:33:41.623Z,97644.56
2023-12-21T23:36:08.556Z,97653.41
2023-12-21T23:38:35.400Z,97605.28
2023-12-21T23:41:05.910Z,97603.06
2023-12-21T23:43:32.818Z,97616.91
2023-12-21T23:45:59.672Z,97647.44
2023-12-21T23:48:26.600Z,97618.75
2023-12-21T23:50:53.446Z,97623.78
2023-12-21T23:53:20.262Z,97628.25
2023-12-21T23:55:47.127Z,97657.41
2023-12-21T23:58:14.402Z,97640.72
